Virtual Norwegian is not affiliated with Norwegian Air Shuttle in any way.
If you are looking for the real "Norwegian", or you wish to book Norwegian flights, please visit Norwegian.com


We use cookies to ensure you get the best experience on our website.   ACCEPT

GCLP - LPA - Gran Canaria (Gran Canaria)

General Info Alternate Airport
ICAO: GCLP Elevation: 78 ft ICAO: GCTS
IATA: LPA Country: Spain IATA: TFS
City: Gran Canaria Charts: Log in to view charts City: Tenerife South
Name: Gran Canaria Hub: Yes Name Reina Sofia
General Info
ICAO: GCLP
IATA: LPA
City: Gran Canaria
Name: Gran Canaria
Elevation: 78 ft
Country: Spain
Charts: Log in to view charts
Hub: Yes
 
Alternate Airport
ICAO: GCTS
IATA: TFS
City: Tenerife South
Name: Reina Sofia

Weather
231500Z 04008KT 010V080 9999 FEW015 24/19 Q1018 NOSIG
Weather
231500Z 04008KT 010V080 9999 FEW015 24/19 Q1018 NOSIG

Runway Info
03L
Length ILS/LOC Course
3100 m 109.90 027
03R
Length ILS/LOC Heading
3100 m N/A 021
21L
Length ILS/LOC Heading
3100 m N/A 201
21R
Length ILS/LOC Course
3100 m 110.70 207

NOTAMs
NOTAMs currently unavailable.
NOTAMs
NOTAMs currently unavailable

Route map
Airport
Airport (hub)